x

Central Aleutians 230nm Sw Dutch Harbor (46072) Wave Buoy

3:50pm - Mon 2nd Mar 2015 All times are UTC.

  • Sig Wave height 10.5ft
  • Peak Period 14s
  • Average Period 8s
  • Wind
    22mph, 27mph gusts
  • Sea Temp 41°f
  • Air Temp 40°f
  • Sea Pressure 1005.8mb

More Historic Weather Station data

Upgrade to MSW Pro to gain access to the past 30 days of data for over 8000 Wavebouys and Weather Stations around the globe.

Join Pro

Comparision Forecast

View Surf forecast
   
Mon 03/02 3:50pm 10.5ft 14s 8s 22 27 mph 1005.8mb 41f 40f
2:50pm 10ft 13s 9s 18 22 mph 1005.3mb 41f 39f
1:50pm 11.5ft 13s 9s 4 7 mph 1004.9mb 41f 39f
12:50pm 11ft 13s 9s 9 11 mph 1004.7mb 41f 39f
11:50am 10ft 14s 9s 11 13 mph 1004.4mb 42f 39f
10:50am 10ft 13s 8s 11 13 mph 1004.3mb 42f 40f
9:50am 11ft 14s 9s 11 16 mph 1004.4mb 42f 40f
8:50am 11ft 14s 9s 13 16 mph 1004.5mb 41f 40f
7:50am 11ft 14s 8s 11 13 mph 1004.5mb 41f 40f
6:50am 12ft 13s 9s 13 16 mph 1004.8mb 41f 40f
5:50am 11ft 13s 8s 11 13 mph 1004.4mb 41f 40f
4:50am 12ft 12s 8s 11 13 mph 1004.2mb 41f 40f
3:50am 12.5ft 14s 9s 13 18 mph 1005mb 41f 40f
2:50am 11.5ft 14s 9s 11 16 mph 1005.4mb 41f 40f
1:50am 11.5ft 15s 9s 9 13 mph 1005.6mb 41f 40f
12:50am 10.5ft 14s 8s 9 13 mph 1006.2mb 41f 40f
Sun 03/01 11:50pm 11ft 14s 8s 13 16 mph 1007.4mb 41f 40f
10:50pm 9.5ft 11s 8s 11 16 mph 1008.1mb 41f 40f
9:50pm 7.5ft 15s 7s 11 13 mph 1009mb 41f 40f
8:50pm 7ft 15s 6s 13 16 mph 1009.8mb 41f 40f
7:50pm 6ft 9s 6s 16 20 mph 1010.4mb 41f 40f
6:50pm 5ft 9s 5s 16 18 mph 1011.1mb 41f 40f
5:50pm 5ft 9s 5s 13
mph
1011.6mb 41f 40f
4:50pm 5ft 8s 5s 16 18 mph 1012.7mb 41f 39f
3:50pm 5.5ft 9s 5s 20 25 mph 1013.3mb 41f 40f
2:50pm 5.5ft 9s 5s 20 27 mph 1013.8mb 41f 40f
1:50pm 5ft 9s 5s 20 25 mph 1014.9mb 41f 39f
12:50pm 5ft 8s 5s 20 27 mph 1015.9mb 41f 40f
11:50am 5ft 10s 5s 20 25 mph 1016.9mb 41f 39f
10:50am 5ft 10s 5s 18 22 mph 1018.3mb 41f 39f
9:50am 5ft 9s 5s 18 20 mph 1019.6mb 41f 39f
8:50am 5.5ft 10s 5s 16 20 mph 1020.9mb 41f 40f
7:50am 5.5ft 10s 5s 20 22 mph 1021.5mb 41f 40f
6:50am 5.5ft 10s 5s 18 20 mph 1021.8mb 41f 40f
5:50am 6.5ft 10s 6s 20 22 mph 1022.1mb 41f 40f
4:50am 7ft 10s 6s 20 22 mph 1022.3mb 41f 39f
3:50am 6.5ft 10s 6s 16 20 mph 1022.8mb 42f 39f
2:50am 6ft 10s 7s 16 18 mph 1023.3mb 42f 38f
1:50am 6ft 10s 7s 16 20 mph 1023.6mb 41f 39f
12:50am 6ft 10s 7s 13 16 mph 1024.4mb 41f 39f
Sat 02/28 11:50pm 6.5ft 11s 7s 11 13 mph 1025.4mb 41f 39f
10:50pm 6.5ft 11s 7s 11 16 mph 1026.2mb 41f 39f
9:50pm 6.5ft 11s 7s 11 18 mph 1026.5mb 41f 38f
8:50pm 6.5ft 11s 7s 7 11 mph 1027.1mb 41f 38f
7:50pm 6ft 11s 6s 9 16 mph 1027.4mb 41f 38f
6:50pm 6ft 8s 6s 13 18 mph 1026.6mb 41f 38f
5:50pm 6.5ft 8s 6s 13 16 mph 1026.5mb 41f 38f
4:50pm 6ft 11s 6s 16 20 mph 1025.9mb 41f 39f
3:50pm 6.5ft 6s 6s 16 18 mph 1025.9mb 41f 39f
2:50pm 7ft 10s 6s 16 20 mph 1025.4mb 41f 39f
1:50pm 6.5ft 10s 6s 16 18 mph 1025.7mb 41f 39f
12:50pm 7ft 10s 6s 16 18 mph 1026.2mb 41f 39f
11:50am 7ft 10s 6s 13 16 mph 1026.1mb 41f 40f
10:50am 6.5ft 11s 6s 16 18 mph 1025.5mb 41f 40f
9:50am 6ft 7s 6s 16 18 mph 1024.5mb 42f 40f
8:50am 7ft 10s 6s 18 20 mph 1024mb 42f 40f
7:50am 7ft 11s 6s 16 20 mph 1024mb 42f 40f
6:50am 7.5ft 10s 6s 16 20 mph 1023mb 42f 40f
5:50am 7ft 11s 6s 16 20 mph 1022mb 42f 40f
4:50am 7.5ft 11s 6s 18 22 mph 1020.5mb 42f 39f
3:50am 8ft 10s 6s 20 25 mph 1019.7mb 42f 39f
2:50am 8ft 11s 6s 22 27 mph 1019.2mb 42f 39f
1:50am 7ft 11s 6s 22 25 mph 1018.5mb 42f 39f
12:50am 8ft 11s 7s 16 18 mph 1018mb 42f 39f
Fri 02/27 11:50pm 8ft 11s 7s 7
mph
1017.5mb 42f 40f
10:50pm 8.5ft 11s 7s 4 7 mph 1017.2mb 42f 40f
9:50pm 9ft 11s 7s 7 9 mph 1016.7mb 42f 40f
8:50pm 8.5ft 11s 7s 7 9 mph 1016mb 42f 40f
7:50pm 10ft 11s 8s 9 11 mph 1015.5mb 42f 40f
6:50pm 9.5ft 11s 7s 11 13 mph 1014.9mb 42f 39f
5:50pm 10ft 11s 7s 11 13 mph 1014.5mb 42f 39f
4:50pm 10ft 11s 7s 13 16 mph 1014.1mb 42f 39f
3:50pm 10.5ft 11s 7s 13 16 mph 1014.1mb 42f 40f
2:50pm 11ft 11s 7s 13 16 mph 1014mb 42f 40f
1:50pm 10.5ft 11s 7s 16 18 mph 1014.2mb 42f 39f
12:50pm 10.5ft 11s 6s 18 20 mph 1014.4mb 42f 40f
11:50am 10ft 11s 6s 20 22 mph 1014.6mb 41f 40f
10:50am 10.5ft 9s 6s 20 22 mph 1014.9mb 41f 39f
9:50am 11ft 11s 7s 22 27 mph 1015.4mb 41f 40f
8:50am 10.5ft 11s 6s 22 27 mph 1015.8mb 41f 39f
7:50am 11ft 11s 7s 25 29 mph 1016mb 41f 40f
6:50am 13ft 11s 7s 22 27 mph 1016.9mb 41f 39f
5:50am 12ft 12s 7s 25 29 mph 1017.1mb 41f 39f
4:50am 13.5ft 11s 7s 25 29 mph 1017.4mb 41f 39f
3:50am 13.5ft 12s 7s 25 29 mph 1017.9mb 41f 39f
2:50am 13ft 11s 7s 27 31 mph 1018.6mb 41f 39f
1:50am 13ft 11s 7s 27 31 mph 1019.3mb 41f 39f
12:50am 15ft 12s 7s 25 31 mph 1019.9mb 41f 39f
Thu 02/26 11:50pm 13.5ft 11s 7s 25 31 mph 1020.9mb 41f 40f
10:50pm 15ft 12s 7s 27 31 mph 1021.7mb 42f 39f
9:50pm 14ft 12s 7s 25 31 mph 1022.6mb 42f 39f
8:50pm 14.5ft 12s 7s 27 34 mph 1022.8mb 42f 40f
7:50pm 14ft 11s 7s 27 38 mph 1023.2mb 42f 39f
6:50pm 14ft 13s 7s 27 31 mph 1023mb 42f 39f
5:50pm 14.5ft 12s 7s 25 31 mph 1023.3mb 42f 39f